Flight Track Log - Related Links

Times and Time Zones

All times are in EDT time to prevent confusion due to time zone crossing. See the ASH2801 flight status page for this flight to view local times or setup timezone preferences in your user account.

Time Position Orientation Groundspeed Altitude Reporting Facility
EDT Latitude Longitude Course Direction KTS MPH feet Rate Location/Type
Thu 01:08:45 PM 33.4333 -111.9833 90° East 169 194 1,900  Level Phoenix TRACON
Thu 01:10:15 PM 33.4333 -111.8833 107° East 217 250 5,500 2,400 Climbing Phoenix TRACON
Thu 01:11:10 PM 33.4167 -111.8167 129° Southeast 212 244 7,700 2,348 Climbing Phoenix TRACON
Thu 01:12:10 PM 33.3833 -111.7667 196° South 224 258 10,000 1,667 Climbing Phoenix TRACON
Thu 01:13:16 PM 33.3333 -111.7833 259° West 262 302 11,200 810 Climbing Phoenix TRACON
Thu 01:14:16 PM 33.3167 -111.8833 280° West 335 386 11,700 1,559 Climbing Phoenix TRACON
Thu 01:16:40 PM 33.3511 -112.1233 280° West 326 375 16,500 1,529 Climbing Albuquerque Center
Thu 01:17:40 PM 33.3675 -112.2314 279° West 326 375 16,900 700 Climbing Albuquerque Center
Thu 01:18:40 PM 33.3833 -112.3542 281° West 351 404 17,900 1,050 Climbing Albuquerque Center
Thu 01:19:40 PM 33.4047 -112.4897 280° West 369 425 19,000 1,100 Climbing Albuquerque Center
Thu 01:20:40 PM 33.4222 -112.6125 280° West 377 434 20,100 942 Climbing Albuquerque Center
Thu 01:21:41 PM 33.4417 -112.7406 279° West 384 442 20,900 750 Climbing Albuquerque Center
Thu 01:22:40 PM 33.4589 -112.8686 285° West 390 449 21,600 807 Climbing Albuquerque Center
Thu 01:23:40 PM 33.4864 -112.9925 283° West 390 449 22,500 950 Climbing Albuquerque Center
Thu 01:24:40 PM 33.5097 -113.1161 282° West 390 449 23,500 545 Climbing Albuquerque Center
Thu 01:25:41 PM 33.5328 -113.2447 282° West 390 449 23,600 100 Climbing Albuquerque Center
Thu 01:26:40 PM 33.5572 -113.3783 283° West 403 464 23,700 151 Climbing Albuquerque Center
Thu 01:27:40 PM 33.5836 -113.5200 283° West 416 479 23,900 359 Climbing Albuquerque Center
Thu 01:29:44 PM 33.6333 -113.7786 283° West 433 498 24,800 359 Climbing Los Angeles Center
Thu 01:30:44 PM 33.6589 -113.9175 282° West 426 490 25,000 450 Climbing Los Angeles Center
Thu 01:31:44 PM 33.6819 -114.0492 283° West 426 490 25,700 700 Climbing Los Angeles Center
Thu 01:32:44 PM 33.7072 -114.1836 283° West 421 484 26,400 650 Climbing Los Angeles Center
Thu 01:33:44 PM 33.7319 -114.3128 281° West 410 472 27,000 450 Climbing Los Angeles Center
Thu 01:34:44 PM 33.7528 -114.4422 281° West 405 466 27,300 350 Climbing Los Angeles Center
Thu 01:35:44 PM 33.7733 -114.5744 274° West 405 466 27,700 350 Climbing Los Angeles Center
Thu 01:36:44 PM 33.7811 -114.7092 275° West 405 466 28,000 150 Climbing Los Angeles Center
Thu 01:37:44 PM 33.7908 -114.8464 273° West 405 466 28,000  Level Los Angeles Center
Thu 01:38:44 PM 33.7964 -114.9839 275° West 405 466 28,000  Level Los Angeles Center
Thu 01:39:44 PM 33.8061 -115.1239 274° West 410 472 28,000  Level Los Angeles Center
Thu 01:40:44 PM 33.8133 -115.2661 275° West 421 484 28,000  Level Los Angeles Center
Thu 01:41:44 PM 33.8228 -115.4086 286° West 427 491 28,000  Level Los Angeles Center
Thu 01:42:44 PM 33.8547 -115.5458 291° West 427 491 28,000  Level Los Angeles Center
Thu 01:43:45 PM 33.8969 -115.6783 291° West 421 484 28,000  Level Los Angeles Center
Thu 01:44:44 PM 33.9392 -115.8133 292° West 421 484 28,000  Level Los Angeles Center
Thu 01:45:44 PM 33.9833 -115.9458 291° West 426 490 28,000  Level Los Angeles Center
Thu 01:46:44 PM 34.0272 -116.0811 289° West 432 497 28,000  Level Los Angeles Center
Thu 01:47:44 PM 34.0667 -116.2164 290° West 432 497 28,000  Level Los Angeles Center
Thu 01:49:44 PM 34.1539 -116.5003 290° West 432 497 28,000  Level Los Angeles Center
Thu 01:50:44 PM 34.1950 -116.6361 291° West 432 497 28,000  Level Los Angeles Center
Thu 01:51:44 PM 34.2383 -116.7744 293° West 431 496 28,000  Level Los Angeles Center
Thu 01:52:44 PM 34.2856 -116.9081 289° West 431 496 28,000  Level Los Angeles Center
Thu 01:53:44 PM 34.3242 -117.0417 273° West 431 496 28,000  Level Los Angeles Center
Thu 01:54:44 PM 34.3294 -117.1853 272° West 431 496 28,000  Level Los Angeles Center
Thu 01:55:44 PM 34.3342 -117.3286 271° West 425 489 28,000  Level Los Angeles Center
Thu 01:56:44 PM 34.3369 -117.4722 268° West 425 489 28,000  Level Los Angeles Center
Thu 01:57:44 PM 34.3331 -117.6181 271° West 425 489 28,000  Level Los Angeles Center
Thu 01:58:44 PM 34.3356 -117.7589 273° West 425 489 28,000  Level Los Angeles Center
Thu 01:59:44 PM 34.3419 -117.8872 272° West 420 483 28,000  Level Los Angeles Center
Thu 02:00:44 PM 34.3461 -118.0283 271° West 420 483 28,000  Level Los Angeles Center
Thu 02:01:44 PM 34.3481 -118.1717 271° West 420 483 28,000  Level Los Angeles Center
Thu 02:02:44 PM 34.3497 -118.3153 272° West 420 483 28,000  Level Los Angeles Center
Thu 02:03:44 PM 34.3533 -118.4536 271° West 420 483 28,000  Level Los Angeles Center
Thu 02:04:44 PM 34.3547 -118.5972 270° West 420 483 28,000  Level Los Angeles Center
Thu 02:05:44 PM 34.3539 -118.7381 272° West 420 483 28,000  Level Los Angeles Center
Thu 02:06:44 PM 34.3569 -118.8767 297° West 420 483 28,000 -750 Level Los Angeles Center
Thu 02:07:44 PM 34.4125 -119.0067 300° West 414 476 26,500 -2,250 Descending Los Angeles Center
Thu 02:08:44 PM 34.4761 -119.1425 302° West 414 476 23,500 -3,150 Descending Los Angeles Center
Thu 02:09:44 PM 34.5375 -119.2633 301° West 419 482 20,200 -3,200 Descending Los Angeles Center
Thu 02:10:44 PM 34.5950 -119.3789 301° West 424 488 17,100 -1,650 Descending Los Angeles Center
Thu 02:11:44 PM 34.6467 -119.4819 299° West 404 465 16,900 -100 Descending Los Angeles Center
Thu 02:12:44 PM 34.6997 -119.5978 302° West 397 457 16,900  Level Los Angeles Center
Thu 02:13:44 PM 34.7608 -119.7167 300° West 392 451 16,900 -200 Level Los Angeles Center
Thu 02:14:44 PM 34.8139 -119.8278 300° West 387 445 16,500 -1,000 Descending Los Angeles Center
Thu 02:15:44 PM 34.8589 -119.9236 301° West 375 432 14,900 -1,600 Descending Los Angeles Center
Thu 02:16:29 PM 34.8903 -119.9883 298° West 297 342 13,700 -1,821 Descending Los Angeles Center
Thu 02:17:36 PM 34.9311 -120.0839 300° West 276 318 11,500 -1,922 Descending Los Angeles Center
Thu 02:18:37 PM 34.9642 -120.1539 305° West 263 303 9,600 -2,182 Descending Los Angeles Center
Thu 02:19:37 PM 35.0097 -120.2322 302° West 270 311 7,100 -2,220 Descending Los Angeles Center
Thu 02:20:44 PM 35.0506 -120.3128 301° West 274 315 4,900 -1,475 Descending Los Angeles Center
Thu 02:21:39 PM 35.0878 -120.3883 308° West 265 305 4,100 -470 Descending Los Angeles Center
Thu 02:22:39 PM 35.1311 -120.4567 304° West 264 304 4,000  Descending Los Angeles Center
Thu 02:23:40 PM 35.1644 -120.5169 304° West 200 230 4,100 -793 Climbing Los Angeles Center
Thu 02:24:40 PM 35.1919 -120.5667 313° West 158 182 2,400 -1,537 Descending Los Angeles Center
Thu 02:25:41 PM 35.2158 -120.5983 300° West 143 165 1,000 12,387 Descending Los Angeles Center
Thu 02:26:44 PM 35.2544 -120.6794 305° West 192 221 28,000 13,171 Climbing Los Angeles Center
Thu 02:27:44 PM 35.2839 -120.7319 304° West 192 221 28,000  Level Los Angeles Center
Thu 02:28:44 PM 35.2897 -120.7425 360° North 192 221 28,000  Level Los Angeles Center
Thu 02:31:44 PM 35.2897 -120.7425 360° North 192 221 28,000  Level Los Angeles Center

Login

Don't have an account? Register now (free) for customized features, flight alerts, and more!